createdAt,value
2022-11-02T00:00:28.156Z,98860.59
2022-11-02T00:02:55.419Z,98865.34
2022-11-02T00:05:25.787Z,98865.56
2022-11-02T00:07:54.266Z,98864.72
2022-11-02T00:10:23.684Z,98866.59
2022-11-02T00:12:52.120Z,98866.59
2022-11-02T00:15:20.013Z,98858.03
2022-11-02T00:17:54.166Z,98866.78
2022-11-02T00:20:21.849Z,98867.81
2022-11-02T00:22:52.791Z,98829.34
2022-11-02T00:25:22.804Z,98861.75
2022-11-02T00:27:50.299Z,98869.22
2022-11-02T00:30:18.444Z,98858.78
2022-11-02T00:32:45.786Z,98876.03
2022-11-02T00:35:13.545Z,98848.28
2022-11-02T00:37:40.949Z,98866.03
2022-11-02T00:40:08.835Z,98874.50
2022-11-02T00:42:36.070Z,98836.34
2022-11-02T00:45:03.321Z,98879.03
2022-11-02T00:47:30.725Z,98880.44
2022-11-02T00:49:57.988Z,98875.63
2022-11-02T00:52:25.534Z,98876.81
2022-11-02T00:54:52.839Z,98872.47
2022-11-02T00:57:20.212Z,98877.22
2022-11-02T00:59:47.596Z,98877.38
2022-11-02T01:02:15.201Z,98871.25
2022-11-02T01:04:42.558Z,98876.94
2022-11-02T01:07:09.885Z,98877.16
2022-11-02T01:09:37.374Z,98875.47
2022-11-02T01:12:05.986Z,98872.94
2022-11-02T01:14:33.299Z,98873.94
2022-11-02T01:17:00.603Z,98877.50
2022-11-02T01:19:27.950Z,98873.09
2022-11-02T01:21:55.309Z,98871.63
2022-11-02T01:24:22.489Z,98879.56
2022-11-02T01:26:53.570Z,98885.81
2022-11-02T01:29:20.755Z,98868.50
2022-11-02T01:31:49.024Z,98885.44
2022-11-02T01:34:16.501Z,98882.34
2022-11-02T01:36:46.371Z,98889.03
2022-11-02T01:39:14.390Z,98868.00
2022-11-02T01:41:42.439Z,98886.41
2022-11-02T01:44:31.943Z,98897.84
2022-11-02T01:47:27.839Z,98885.19
2022-11-02T01:50:10.690Z,98888.94
2022-11-02T01:52:39.220Z,98883.06
2022-11-02T01:55:30.204Z,98868.09
2022-11-02T01:58:05.210Z,98872.19
2022-11-02T02:00:32.434Z,98865.50
2022-11-02T02:03:18.625Z,98876.03
2022-11-02T02:05:55.603Z,98868.50
2022-11-02T02:08:40.786Z,98879.22
2022-11-02T02:11:52.351Z,98871.09
2022-11-02T02:14:38.752Z,98871.88
2022-11-02T02:18:05.340Z,98874.09
2022-11-02T02:20:54.907Z,98873.03
2022-11-02T02:24:10.697Z,98874.63
2022-11-02T02:26:56.665Z,98871.81
2022-11-02T02:29:33.747Z,98876.94
2022-11-02T02:32:13.804Z,98875.66
2022-11-02T02:35:15.665Z,98870.75
2022-11-02T02:37:47.494Z,98884.53
2022-11-02T02:40:41.553Z,98885.91
2022-11-02T02:43:13.563Z,98887.28
2022-11-02T02:45:45.112Z,98884.97
2022-11-02T02:48:20.353Z,98892.63
2022-11-02T02:50:55.070Z,98886.75
2022-11-02T02:53:28.783Z,98889.81
2022-11-02T02:56:00.162Z,98891.88
2022-11-02T02:58:33.308Z,98889.75
2022-11-02T03:01:02.318Z,98890.94
2022-11-02T03:03:31.308Z,98885.06
2022-11-02T03:06:10.079Z,98892.03
2022-11-02T03:08:39.972Z,98887.03
2022-11-02T03:11:19.463Z,98876.63
2022-11-02T03:14:06.744Z,98883.88
2022-11-02T03:16:55.486Z,98885.72
2022-11-02T03:19:41.997Z,98884.72
2022-11-02T03:22:44.734Z,98880.03
2022-11-02T03:25:40.753Z,98890.75
2022-11-02T03:28:18.752Z,98903.22
2022-11-02T03:30:53.374Z,98890.75
2022-11-02T03:33:35.071Z,98909.00
2022-11-02T03:36:39.798Z,98912.13
2022-11-02T03:39:10.017Z,98910.94
2022-11-02T03:41:41.204Z,98907.19
2022-11-02T03:44:12.067Z,98908.88
2022-11-02T03:46:42.284Z,98911.78
2022-11-02T03:49:13.990Z,98917.81
2022-11-02T03:51:44.224Z,98910.56
2022-11-02T03:54:23.270Z,98910.38
2022-11-02T03:56:53.714Z,98912.69
2022-11-02T03:59:20.684Z,98909.00
2022-11-02T04:01:50.804Z,98909.00
2022-11-02T04:04:18.782Z,98912.31
2022-11-02T04:06:48.488Z,98903.31
2022-11-02T04:09:16.049Z,98917.72
2022-11-02T04:12:01.729Z,98913.38
2022-11-02T04:14:41.355Z,98913.16
2022-11-02T04:20:01.066Z,98916.41
2022-11-02T04:22:46.521Z,98916.63
2022-11-02T04:25:16.353Z,98923.03
2022-11-02T04:27:43.602Z,98913.81
2022-11-02T04:30:10.999Z,98914.47
2022-11-02T04:32:57.634Z,98911.78
2022-11-02T04:35:24.716Z,98919.38
2022-11-02T04:38:10.376Z,98926.16
2022-11-02T04:40:37.627Z,98931.47
2022-11-02T04:43:04.782Z,98925.22
2022-11-02T04:45:31.777Z,98932.09
2022-11-02T04:48:04.449Z,98937.16
2022-11-02T04:50:31.867Z,98926.16
2022-11-02T04:53:01.005Z,98921.59
2022-11-02T04:55:29.904Z,98930.34
2022-11-02T04:57:57.009Z,98929.50
2022-11-02T05:00:24.318Z,98925.97
2022-11-02T05:02:51.678Z,98928.22
2022-11-02T05:05:18.719Z,98937.69
2022-11-02T05:07:45.807Z,98932.47
2022-11-02T05:10:12.741Z,98928.94
2022-11-02T05:12:39.829Z,98931.78
2022-11-02T05:15:07.260Z,98933.84
2022-11-02T05:17:34.312Z,98945.34
2022-11-02T05:20:01.371Z,98941.88
2022-11-02T05:22:28.323Z,98951.84
2022-11-02T05:24:55.321Z,98954.13
2022-11-02T05:27:22.216Z,98949.91
2022-11-02T05:29:49.057Z,98960.69
2022-11-02T05:32:16.072Z,98964.59
2022-11-02T05:34:42.972Z,98966.44
2022-11-02T05:37:10.151Z,98960.59
2022-11-02T05:39:37.610Z,98958.91
2022-11-02T05:42:04.757Z,98962.13
2022-11-02T05:44:31.650Z,98958.44
2022-11-02T05:46:58.616Z,98965.50
2022-11-02T05:49:25.693Z,98967.00
2022-11-02T05:51:52.656Z,98962.13
2022-11-02T05:54:19.574Z,98962.06
2022-11-02T05:56:46.830Z,98962.00
2022-11-02T05:59:14.081Z,98966.31
2022-11-02T06:01:41.225Z,98963.59
2022-11-02T06:04:08.453Z,98967.91
2022-11-02T06:06:35.525Z,98968.13
2022-11-02T06:09:06.893Z,98956.22
2022-11-02T06:11:34.428Z,98964.25
2022-11-02T06:14:01.411Z,98959.78
2022-11-02T06:16:28.527Z,98968.06
2022-11-02T06:18:55.680Z,98967.19
2022-11-02T06:21:22.665Z,98964.38
2022-11-02T06:23:50.521Z,98957.19
2022-11-02T06:26:18.077Z,98961.03
2022-11-02T06:28:45.069Z,98965.88
2022-11-02T06:31:12.440Z,98962.22
2022-11-02T06:33:39.340Z,98958.97
2022-11-02T06:36:06.718Z,98960.09
2022-11-02T06:38:33.626Z,98949.94
2022-11-02T06:41:04.125Z,98952.91
2022-11-02T06:43:31.113Z,98954.50
2022-11-02T06:45:58.640Z,98954.38
2022-11-02T06:48:31.551Z,98954.94
2022-11-02T06:51:01.686Z,98956.50
2022-11-02T06:53:28.965Z,98958.44
2022-11-02T06:55:57.978Z,98965.66
2022-11-02T06:58:26.140Z,98964.81
2022-11-02T07:01:01.591Z,98979.50
2022-11-02T07:03:30.211Z,98975.59
2022-11-02T07:05:57.683Z,98974.34
2022-11-02T07:08:25.681Z,98976.91
2022-11-02T07:10:52.615Z,98976.72
2022-11-02T07:13:19.671Z,98981.56
2022-11-02T07:15:46.829Z,98978.53
2022-11-02T07:18:14.383Z,98974.44
2022-11-02T07:20:41.501Z,98978.31
2022-11-02T07:23:10.110Z,98986.69
2022-11-02T07:25:37.242Z,98979.28
2022-11-02T07:28:04.631Z,98986.41
2022-11-02T07:30:33.506Z,98984.41
2022-11-02T07:33:01.780Z,98984.25
2022-11-02T07:35:28.841Z,98988.66
2022-11-02T07:38:02.640Z,98988.91
2022-11-02T07:40:31.082Z,98989.31
2022-11-02T07:42:58.553Z,98976.06
2022-11-02T07:45:26.230Z,98958.16
2022-11-02T07:47:53.152Z,98979.28
2022-11-02T07:50:22.672Z,98972.28
2022-11-02T07:52:55.458Z,98980.72
2022-11-02T07:55:28.080Z,98976.59
2022-11-02T07:57:57.439Z,98982.25
2022-11-02T08:00:26.356Z,98985.38
2022-11-02T08:02:57.936Z,98982.09
2022-11-02T08:05:26.154Z,98987.97
2022-11-02T08:08:00.577Z,98981.06
2022-11-02T08:10:29.092Z,98970.28
2022-11-02T08:12:56.709Z,98973.47
2022-11-02T08:15:24.135Z,98973.94
2022-11-02T08:18:07.833Z,98967.28
2022-11-02T08:20:36.798Z,98948.47
2022-11-02T08:23:05.202Z,98970.69
2022-11-02T08:25:33.018Z,98972.38
2022-11-02T08:28:01.436Z,98971.81
2022-11-02T08:30:30.584Z,98967.41
2022-11-02T08:33:03.964Z,98967.88
2022-11-02T08:35:30.872Z,98971.00
2022-11-02T08:38:00.120Z,98970.44
2022-11-02T08:40:27.718Z,98972.97
2022-11-02T08:42:59.138Z,98955.00
2022-11-02T08:45:27.216Z,98967.56
2022-11-02T08:47:54.445Z,98964.88
2022-11-02T08:50:22.647Z,98963.03
2022-11-02T08:52:49.696Z,98953.81
2022-11-02T08:55:16.813Z,98967.41
2022-11-02T08:57:56.781Z,98961.53
2022-11-02T09:00:26.628Z,98957.75
2022-11-02T09:03:03.566Z,98955.28
2022-11-02T09:05:32.985Z,98951.47
2022-11-02T09:08:05.903Z,98946.00
2022-11-02T09:10:35.275Z,98945.56
2022-11-02T09:13:05.844Z,98944.47
2022-11-02T09:15:34.966Z,98944.44
2022-11-02T09:18:02.241Z,98943.69
2022-11-02T09:20:29.601Z,98927.63
2022-11-02T09:22:56.651Z,98944.56
2022-11-02T09:25:23.797Z,98946.25
2022-11-02T09:27:55.955Z,98931.84
2022-11-02T09:30:24.364Z,98937.50
2022-11-02T09:33:02.741Z,98939.78
2022-11-02T09:35:32.354Z,98932.44
2022-11-02T09:37:59.347Z,98931.72
2022-11-02T09:40:29.037Z,98932.31
2022-11-02T09:43:06.713Z,98932.66
2022-11-02T09:45:44.528Z,98934.03
2022-11-02T09:48:23.507Z,98929.34
2022-11-02T09:51:15.137Z,98938.69
2022-11-02T09:53:52.655Z,98935.31
2022-11-02T09:56:22.801Z,98937.22
2022-11-02T09:59:01.752Z,98907.13
2022-11-02T10:01:50.393Z,98938.38
2022-11-02T10:04:51.180Z,98932.44
2022-11-02T10:07:24.064Z,98934.91
2022-11-02T10:10:01.388Z,98915.66
2022-11-02T10:12:51.093Z,98941.19
2022-11-02T10:15:23.089Z,98932.72
2022-11-02T10:17:56.800Z,98937.63
2022-11-02T10:20:30.247Z,98944.19
2022-11-02T10:23:03.950Z,98940.69
2022-11-02T10:25:31.269Z,98945.00
2022-11-02T10:28:12.421Z,98942.69
2022-11-02T10:30:40.710Z,98937.91
2022-11-02T10:33:20.631Z,98945.78
2022-11-02T10:38:58.269Z,98941.56
2022-11-02T10:41:49.725Z,98937.31
2022-11-02T10:44:48.970Z,98944.63
2022-11-02T10:47:20.026Z,98929.72
2022-11-02T10:49:49.940Z,98932.47
2022-11-02T10:52:18.730Z,98927.03
2022-11-02T10:54:45.771Z,98920.38
2022-11-02T10:57:15.073Z,98921.16
2022-11-02T10:59:42.008Z,98920.13
2022-11-02T11:02:13.874Z,98918.69
2022-11-02T11:04:42.661Z,98912.44
2022-11-02T11:07:22.303Z,98902.38
2022-11-02T11:09:55.392Z,98920.00
2022-11-02T11:12:31.045Z,98915.34
2022-11-02T11:20:38.355Z,98917.47
2022-11-02T11:23:23.344Z,98917.69
2022-11-02T11:26:02.563Z,98910.16
2022-11-02T11:28:31.470Z,98910.78
2022-11-02T11:31:09.012Z,98920.47
2022-11-02T11:33:57.532Z,98917.75
2022-11-02T11:36:37.238Z,98912.00
2022-11-02T11:39:22.926Z,98913.81
2022-11-02T11:41:49.985Z,98916.69
2022-11-02T11:44:17.172Z,98908.66
2022-11-02T11:46:48.667Z,98913.78
2022-11-02T11:52:31.601Z,98910.34
2022-11-02T11:55:20.872Z,98914.38
2022-11-02T11:58:13.538Z,98906.47
2022-11-02T12:00:40.664Z,98903.22
2022-11-02T12:03:11.671Z,98906.41
2022-11-02T12:06:08.392Z,98909.88
2022-11-02T12:08:51.002Z,98904.09
2022-11-02T12:11:48.524Z,98900.69
2022-11-02T12:14:31.443Z,98895.34
2022-11-02T12:17:01.208Z,98895.50
2022-11-02T12:19:51.138Z,98894.28
2022-11-02T12:22:39.252Z,98888.75
2022-11-02T12:25:31.016Z,98888.75
2022-11-02T12:28:28.768Z,98889.44
2022-11-02T12:31:10.739Z,98891.56
2022-11-02T12:34:01.925Z,98887.31
2022-11-02T12:36:49.670Z,98885.00
2022-11-02T12:39:51.504Z,98883.38
2022-11-02T12:42:28.996Z,98890.03
2022-11-02T12:45:26.915Z,98882.34
2022-11-02T12:48:00.279Z,98886.75
2022-11-02T12:50:51.978Z,98882.72
2022-11-02T12:53:18.866Z,98883.38
2022-11-02T12:55:51.340Z,98875.34
2022-11-02T12:58:22.255Z,98881.72
2022-11-02T13:00:55.929Z,98853.53
2022-11-02T13:03:40.229Z,98876.31
2022-11-02T13:06:14.033Z,98876.84
2022-11-02T13:08:50.468Z,98870.00
2022-11-02T13:11:29.014Z,98877.34
2022-11-02T13:13:59.765Z,98881.81
2022-11-02T13:16:43.576Z,98880.78
2022-11-02T13:19:22.319Z,98885.66
2022-11-02T13:21:55.344Z,98872.81
2022-11-02T13:24:33.998Z,98874.81
2022-11-02T13:29:57.909Z,98875.78
2022-11-02T13:32:43.882Z,98874.03
2022-11-02T13:35:20.872Z,98884.47
2022-11-02T13:38:04.591Z,98879.38
2022-11-02T13:40:47.537Z,98874.22
2022-11-02T13:43:14.406Z,98888.88
2022-11-02T13:45:50.536Z,98885.53
2022-11-02T13:48:36.239Z,98893.16
2022-11-02T13:51:25.714Z,98891.38
2022-11-02T13:54:15.278Z,98892.47
2022-11-02T13:56:43.753Z,98893.50
2022-11-02T13:59:21.050Z,98888.22
2022-11-02T14:01:49.146Z,98895.34
2022-11-02T14:04:16.862Z,98897.22
2022-11-02T14:07:06.362Z,98896.47
2022-11-02T14:09:44.887Z,98895.97
2022-11-02T14:12:17.916Z,98899.22
2022-11-02T14:14:45.876Z,98898.13
2022-11-02T14:17:19.147Z,98895.72
2022-11-02T14:19:48.854Z,98893.75
2022-11-02T14:22:17.644Z,98898.22
2022-11-02T14:24:48.661Z,98894.97
2022-11-02T14:27:19.518Z,98891.66
2022-11-02T14:29:46.623Z,98902.84
2022-11-02T14:32:16.386Z,98897.66
2022-11-02T14:35:08.762Z,98895.72
2022-11-02T14:38:06.780Z,98894.13
2022-11-02T14:40:48.954Z,98889.16
2022-11-02T14:43:49.474Z,98894.06
2022-11-02T14:46:16.428Z,98899.59
2022-11-02T14:48:50.735Z,98902.59
2022-11-02T14:51:29.259Z,98893.84
2022-11-02T14:54:17.838Z,98898.91
2022-11-02T14:57:01.824Z,98895.94
2022-11-02T15:00:17.744Z,98900.59
2022-11-02T15:02:45.385Z,98893.09
2022-11-02T15:05:35.857Z,98896.06
2022-11-02T15:08:31.598Z,98899.84
2022-11-02T15:10:58.562Z,98899.47
2022-11-02T15:13:48.857Z,98907.84
2022-11-02T15:16:16.804Z,98911.44
2022-11-02T15:18:43.634Z,98914.97
2022-11-02T15:21:10.608Z,98916.00
2022-11-02T15:26:23.694Z,98922.91
2022-11-02T15:28:54.319Z,98930.44
2022-11-02T15:31:26.117Z,98915.78
2022-11-02T15:34:04.269Z,98936.69
2022-11-02T15:36:38.753Z,98928.13
2022-11-02T15:39:12.150Z,98936.91
2022-11-02T15:41:42.121Z,98931.66
2022-11-02T15:44:24.369Z,98937.09
2022-11-02T15:47:04.403Z,98945.84
2022-11-02T15:49:59.088Z,98942.50
2022-11-02T15:52:35.041Z,98954.22
2022-11-02T15:55:21.812Z,98961.75
2022-11-02T15:58:02.805Z,98956.09
2022-11-02T16:00:32.864Z,98957.53
2022-11-02T16:03:10.820Z,98966.75
2022-11-02T16:05:47.835Z,98948.59
2022-11-02T16:08:25.752Z,98964.66
2022-11-02T16:11:13.424Z,98966.75
2022-11-02T16:13:49.088Z,98969.44
2022-11-02T16:16:30.810Z,98958.81
2022-11-02T16:19:01.756Z,98975.53
2022-11-02T16:21:28.760Z,98973.22
2022-11-02T16:23:58.004Z,98973.88
2022-11-02T16:26:29.644Z,98977.22
2022-11-02T16:28:59.849Z,98982.84
2022-11-02T16:31:31.883Z,98978.03
2022-11-02T16:34:03.645Z,98985.13
2022-11-02T16:36:35.245Z,98991.00
2022-11-02T16:39:04.528Z,98986.41
2022-11-02T16:41:34.260Z,98999.97
2022-11-02T16:44:10.261Z,98998.88
2022-11-02T16:46:49.935Z,99000.78
2022-11-02T16:49:21.471Z,99010.38
2022-11-02T16:51:53.724Z,99004.31
2022-11-02T16:54:33.955Z,99023.06
2022-11-02T16:57:21.303Z,99016.59
2022-11-02T16:59:55.980Z,99024.69
2022-11-02T17:02:31.585Z,99025.53
2022-11-02T17:05:04.484Z,99023.44
2022-11-02T17:07:47.655Z,99028.63
2022-11-02T17:10:25.756Z,99031.53
2022-11-02T17:12:53.614Z,99035.44
2022-11-02T17:15:23.828Z,99029.53
2022-11-02T17:17:51.141Z,99031.53
2022-11-02T17:20:21.713Z,99033.34
2022-11-02T17:22:52.247Z,99033.31
2022-11-02T17:25:27.125Z,99036.03
2022-11-02T17:28:04.110Z,99032.03
2022-11-02T17:30:39.867Z,99036.97
2022-11-02T17:33:30.228Z,99043.13
2022-11-02T17:36:09.415Z,99041.75
2022-11-02T17:38:37.725Z,99041.75
2022-11-02T17:41:25.862Z,99042.56
2022-11-02T17:43:53.811Z,99045.09
2022-11-02T17:46:24.762Z,99048.25
2022-11-02T17:48:54.405Z,99049.75
2022-11-02T17:51:26.657Z,99056.38
2022-11-02T17:53:59.192Z,99051.94
2022-11-02T17:56:26.753Z,99051.75
2022-11-02T17:58:54.339Z,99062.59
2022-11-02T18:01:22.172Z,99010.69
2022-11-02T18:03:50.057Z,99052.78
2022-11-02T18:06:17.920Z,99059.63
2022-11-02T18:09:04.426Z,99057.50
2022-11-02T18:11:33.505Z,99000.06
2022-11-02T18:14:01.288Z,99069.69
2022-11-02T18:16:29.854Z,99066.72
2022-11-02T18:18:57.388Z,99065.63
2022-11-02T18:21:26.570Z,99064.09
2022-11-02T18:23:54.644Z,99067.59
2022-11-02T18:26:24.879Z,99061.00
2022-11-02T18:28:53.231Z,99065.91
2022-11-02T18:31:20.941Z,99079.56
2022-11-02T18:33:49.174Z,99074.25
2022-11-02T18:36:18.481Z,99042.44
2022-11-02T18:38:45.864Z,99077.09
2022-11-02T18:41:30.776Z,99064.66
2022-11-02T18:44:04.642Z,99067.53
2022-11-02T18:46:34.009Z,99068.00
2022-11-02T18:49:05.236Z,99076.91
2022-11-02T18:51:32.840Z,99073.72
2022-11-02T18:54:03.058Z,99074.09
2022-11-02T18:56:37.399Z,99085.47
2022-11-02T18:59:04.779Z,99097.69
2022-11-02T19:01:33.861Z,99092.00
2022-11-02T19:04:02.313Z,99087.53
2022-11-02T19:06:50.437Z,99091.50
2022-11-02T19:09:18.890Z,99100.94
2022-11-02T19:11:50.971Z,99090.41
2022-11-02T19:14:19.350Z,99103.59
2022-11-02T19:16:46.498Z,99099.94
2022-11-02T19:19:13.462Z,99103.03
2022-11-02T19:21:40.837Z,99112.16
2022-11-02T19:24:08.372Z,99119.41
2022-11-02T19:26:39.172Z,99122.09
2022-11-02T19:29:07.101Z,99116.22
2022-11-02T19:31:35.924Z,99113.34
2022-11-02T19:34:03.097Z,99115.88
2022-11-02T19:36:30.439Z,99109.66
2022-11-02T19:38:58.674Z,99119.06
2022-11-02T19:41:26.267Z,99088.19
2022-11-02T19:43:53.435Z,99061.34
2022-11-02T19:46:23.035Z,99115.38
2022-11-02T19:48:51.019Z,99130.75
2022-11-02T19:51:31.777Z,99106.22
2022-11-02T19:54:01.152Z,99134.84
2022-11-02T19:56:36.286Z,99123.03
2022-11-02T19:59:04.999Z,99125.72
2022-11-02T20:01:35.200Z,99133.19
2022-11-02T20:04:03.515Z,99141.56
2022-11-02T20:06:40.957Z,99147.91
2022-11-02T20:09:17.456Z,99137.03
2022-11-02T20:11:45.651Z,99139.00
2022-11-02T20:14:14.181Z,99137.72
2022-11-02T20:16:41.848Z,99143.41
2022-11-02T20:19:09.641Z,99129.13
2022-11-02T20:21:42.807Z,99112.28
2022-11-02T20:24:13.061Z,99139.28
2022-11-02T20:26:43.872Z,99139.06
2022-11-02T20:29:13.853Z,99135.53
2022-11-02T20:31:44.825Z,99144.47
2022-11-02T20:34:13.124Z,99142.16
2022-11-02T20:36:40.627Z,99142.28
2022-11-02T20:39:08.316Z,99141.16
2022-11-02T20:41:35.264Z,99093.25
2022-11-02T20:44:02.257Z,99144.25
2022-11-02T20:46:37.878Z,99148.47
2022-11-02T20:49:20.052Z,99145.75
2022-11-02T20:51:53.236Z,99138.84
2022-11-02T20:54:22.490Z,99141.91
2022-11-02T20:56:50.564Z,99137.16
2022-11-02T20:59:17.891Z,99143.59
2022-11-02T21:01:45.655Z,99145.94
2022-11-02T21:04:18.534Z,99135.84
2022-11-02T21:06:48.085Z,99143.66
2022-11-02T21:09:15.128Z,99143.03
2022-11-02T21:12:01.759Z,99143.44
2022-11-02T21:14:28.728Z,99143.34
2022-11-02T21:16:55.791Z,99150.31
2022-11-02T21:19:23.302Z,99146.00
2022-11-02T21:21:53.809Z,99151.81
2022-11-02T21:24:23.798Z,99151.41
2022-11-02T21:26:51.130Z,99115.78
2022-11-02T21:29:18.059Z,99152.78
2022-11-02T21:31:45.799Z,99161.09
2022-11-02T21:34:12.845Z,99163.38
2022-11-02T21:36:40.702Z,99165.75
2022-11-02T21:39:08.065Z,99157.81
2022-11-02T21:41:38.711Z,99163.75
2022-11-02T21:44:07.486Z,99167.13
2022-11-02T21:46:34.597Z,99173.16
2022-11-02T21:49:03.138Z,99176.53
2022-11-02T21:51:31.013Z,99161.38
2022-11-02T21:53:58.425Z,99162.38
2022-11-02T21:56:27.236Z,99152.31
2022-11-02T21:58:56.263Z,99169.81
2022-11-02T22:01:47.253Z,99156.38
2022-11-02T22:04:21.795Z,99156.91
2022-11-02T22:06:49.870Z,99154.91
2022-11-02T22:09:17.584Z,99165.38
2022-11-02T22:11:45.265Z,99153.78
2022-11-02T22:14:12.918Z,99153.97
2022-11-02T22:16:43.893Z,99149.28
2022-11-02T22:19:14.687Z,99152.50
2022-11-02T22:21:44.901Z,99142.72
2022-11-02T22:24:12.982Z,99148.47
2022-11-02T22:26:40.790Z,99153.66
2022-11-02T22:29:08.497Z,99147.63
2022-11-02T22:31:42.238Z,99161.63
2022-11-02T22:34:11.400Z,99165.84
2022-11-02T22:36:40.541Z,99171.59
2022-11-02T22:39:10.153Z,99177.16
2022-11-02T22:41:45.956Z,99176.97
2022-11-02T22:44:15.543Z,99173.94
2022-11-02T22:46:45.174Z,99192.97
2022-11-02T22:49:14.371Z,99188.22
2022-11-02T22:51:43.609Z,99181.16
2022-11-02T22:54:15.847Z,99185.69
2022-11-02T22:56:44.430Z,99189.94
2022-11-02T22:59:11.643Z,99192.13
2022-11-02T23:01:39.273Z,99192.25
2022-11-02T23:04:07.288Z,99187.22
2022-11-02T23:06:35.068Z,99192.25
2022-11-02T23:09:02.500Z,99189.91
2022-11-02T23:11:32.742Z,99185.88
2022-11-02T23:14:03.158Z,99184.72
2022-11-02T23:16:35.816Z,99198.16
2022-11-02T23:19:27.796Z,99190.75
2022-11-02T23:22:43.845Z,99182.00
2022-11-02T23:25:19.908Z,99192.94
2022-11-02T23:28:15.399Z,99194.63
2022-11-02T23:31:01.846Z,99187.41
2022-11-02T23:33:32.048Z,99194.28
2022-11-02T23:36:12.745Z,99187.56
2022-11-02T23:38:59.560Z,99193.28
2022-11-02T23:41:26.663Z,99196.50
2022-11-02T23:44:12.023Z,99197.66
2022-11-02T23:46:43.294Z,99200.69
2022-11-02T23:49:11.260Z,99208.91
2022-11-02T23:51:56.904Z,99206.91
2022-11-02T23:54:42.418Z,99212.44
2022-11-02T23:57:09.333Z,99211.09
2022-11-02T23:59:36.247Z,99216.34
